Manila Express — VRCX7 — position and weather

sailwx.info

Track history (hours):
 
Tides and Currents Weather Stations Pressure Air Temp Water Temp Dewpoint Dewpoint Depression Visibility Wind Speed Wind Dir Waves Ship Positions

Manila Express

Last reported at 2016-May-28 15:16 UTC. Time now 2016-May-29 23:05 UTC.
Position S 36°15' E 150°34'.

Length 260 m; draft 9.9 m.

Type: Ship (hazmat cat A). MMSI: 477830800.

Date/timePositionNaut miles runAvg speedWind from/ knotsBaromVisibWave heightAir tempDewpointWater temp
2016-May-28 15:16S 36°15' E 150°34'1115.4
2016-May-28 14:33S 36°25' E 150°30'1515.3
2016-May-28 13:34S 36°40' E 150°24'1515.3
2016-May-28 12:33S 36°54' E 150°18'1616.3
2016-May-28 11:33S 37°10' E 150°13'1717.1
2016-May-28 10:33S 37°26' E 150°06'1716.8
2016-May-28 09:33S 37°42' E 149°58'1716.9
2016-May-28 08:33S 37°53' E 149°42'1616.1
2016-May-28 07:33S 38°03' E 149°27'1716.6
2016-May-28 06:33S 38°14' E 149°11'1716.6
2016-May-28 05:33S 38°24' E 148°54'8517.0
2016-May-28 00:33S 39°02' E 147°16'2019.6
2016-May-27 23:33S 39°10' E 146°53'1716.5
2016-May-27 22:33S 39°17' E 146°33'1616.1
2016-May-27 21:33S 39°17' E 146°13'1515.4
2016-May-27 20:33S 39°12' E 145°54'150 3.5
2016-May-26 01:31S 38°50' E 142°43'1819.2
2016-May-26 00:33S 38°46' E 142°20'1818.3
2016-May-25 23:33S 38°41' E 141°58'  
Track history (hours):
 
Tides and Currents Weather Stations Pressure Air Temp Water Temp Dewpoint Dewpoint Depression Visibility Wind Speed Wind Dir Waves Ship Positions

Manila Express

Last reported at 2016-May-28 15:16 UTC. Time now 2016-May-29 23:05 UTC.
Position S 36°15' E 150°34'.

Length 260 m; draft 9.9 m.

Type: Ship (hazmat cat A). MMSI: 477830800.

Date/timePositionNaut miles runAvg speedWind from/ knotsBaromVisibWave heightAir tempDewpointWater temp
2016-May-28 15:16S 36°15' E 150°34'1115.4
2016-May-28 14:33S 36°25' E 150°30'1515.3
2016-May-28 13:34S 36°40' E 150°24'1515.3
2016-May-28 12:33S 36°54' E 150°18'1616.3
2016-May-28 11:33S 37°10' E 150°13'1717.1
2016-May-28 10:33S 37°26' E 150°06'1716.8
2016-May-28 09:33S 37°42' E 149°58'1716.9
2016-May-28 08:33S 37°53' E 149°42'1616.1
2016-May-28 07:33S 38°03' E 149°27'1716.6
2016-May-28 06:33S 38°14' E 149°11'1716.6
2016-May-28 05:33S 38°24' E 148°54'8517.0
2016-May-28 00:33S 39°02' E 147°16'2019.6
2016-May-27 23:33S 39°10' E 146°53'1716.5
2016-May-27 22:33S 39°17' E 146°33'1616.1
2016-May-27 21:33S 39°17' E 146°13'1515.4
2016-May-27 20:33S 39°12' E 145°54'150 3.5
2016-May-26 01:31S 38°50' E 142°43'1819.2
2016-May-26 00:33S 38°46' E 142°20'1818.3
2016-May-25 23:33S 38°41' E 141°58'  

Dump ship's entire track history